Terminal Aerodrome Forecast
Issued by NWS

Home | Current Version | Previous Version | Text Only | Print | Product List | Glossary On
Versions: 1 2 3 4 5 6 7 8 9 10 11 12 13 14 15 16 17 18 19 20 21 22 23 24 25
000
FTUS41 KPHI 302133 AAB
TAFMIV
TAF AMD
KMIV 302133Z 3022/0118 11012KT P6SM OVC018
     FM010200 11006KT P6SM OVC008
     FM010400 11004KT 6SM BR BKN010
     FM010700 13004KT 1SM BR SCT010 BKN035
     FM011000 19006KT 4SM BR SCT025 BKN100
     FM011300 21012KT P6SM BKN035
     FM011700 21014G24KT P6SM SCT050=

USA.gov is the U.S. government's official web portal to all federal, state and local government web resources and services.